Time;durP1;ratioP1;P1;durP2;ratioP2;P2;SDS_P1;SDS_P2;PMS_P1;PMS_P2;Temp;Humidity;BMP_temperature;BMP_pressure;BME280_temperature;BME280_humidity;BME280_pressure;Samples;Min_cycle;Max_cycle;Signal;HPM_P1;HPM_P2
2022/03/14 00:00:42;;;;;;;;;;;;;;;-144.19;81.30;77439.50;5981323;24;19942;-84
2022/03/14 00:03:10;;;;;;;;;;;;;;;-144.19;79.49;77437.53;5981626;24;20016;-83
2022/03/14 00:05:38;;;;;;;;;;;;;;;-144.19;82.65;77457.22;5983910;24;20268;-84
2022/03/14 00:08:05;;;;;;;;;;;;;;;-144.19;82.06;77474.94;5982174;24;19925;-83
2022/03/14 00:10:34;;;;;;;;;;;;;;;-144.19;81.62;77461.16;5977875;24;19918;-86
2022/03/14 00:13:00;;;;;;;;;;;;;;;-144.19;80.70;77463.13;5981917;24;20287;-82
2022/03/14 00:15:33;;;;;;;;;;;;;;;-144.19;82.80;77480.84;5983259;24;19964;-84
2022/03/14 00:18:01;;;;;;;;;;;;;;;-144.19;79.37;77492.66;5982218;24;19919;-84
2022/03/14 00:20:28;;;;;;;;;;;;;;;-144.19;81.32;77488.72;5982782;24;20340;-84
2022/03/14 00:22:56;;;;;;;;;;;;;;;-144.19;82.92;77488.72;5982762;24;19918;-86
2022/03/14 00:25:23;;;;;;;;;;;;;;;-144.19;83.64;77498.56;5983609;24;19925;-84
2022/03/14 00:27:49;;;;;;;;;;;;;;;-144.19;84.64;77508.41;6001333;23;19926;-83
2022/03/14 00:30:20;;;;;;;;;;;;;;;-144.19;88.33;77518.25;6011506;23;20319;-82
2022/03/14 00:32:47;;;;;;;;;;;;;;;-144.19;89.79;77524.16;6008907;23;19929;-83
2022/03/14 00:35:13;;;;;;;;;;;;;;;-144.19;91.53;77532.03;6012185;23;20008;-83
2022/03/14 00:37:39;;;;;;;;;;;;;;;-144.19;92.48;77535.97;6011597;23;19953;-84
2022/03/14 00:40:07;;;;;;;;;;;;;;;-144.19;94.79;77559.63;6010740;23;19922;-85
2022/03/14 00:42:35;;;;;;;;;;;;;;;-144.19;93.38;77555.69;6010573;23;19944;-84
2022/03/14 00:45:02;;;;;;;;;;;;;;;-144.19;88.30;77539.91;6009707;23;20284;-85
2022/03/14 00:47:28;;;;;;;;;;;;;;;-144.19;95.06;77541.88;6011825;23;19997;-83
2022/03/14 00:49:55;;;;;;;;;;;;;;;-144.19;94.56;77547.78;6009293;23;20258;-83
2022/03/14 00:52:21;;;;;;;;;;;;;;;-144.19;89.65;77545.84;6010733;23;19922;-85
2022/03/14 00:54:48;;;;;;;;;;;;;;;-144.19;91.98;77551.72;6009350;23;19918;-84
2022/03/14 00:57:15;;;;;;;;;;;;;;;-144.19;95.63;77559.63;6009912;23;19919;-84
2022/03/14 00:59:42;;;;;;;;;;;;;;;-144.19;92.17;77565.53;6010453;23;20001;-84
2022/03/14 01:02:09;;;;;;;;;;;;;;;-144.19;88.11;77561.59;6010688;23;19918;-86
2022/03/14 01:04:35;;;;;;;;;;;;;;;-144.19;90.22;77555.69;6010997;23;20002;-84
2022/03/14 01:07:02;;;;;;;;;;;;;;;-144.19;90.05;77577.34;6011028;23;20271;-85
2022/03/14 01:09:33;;;;;;;;;;;;;;;-144.19;91.79;77579.31;6007689;23;20000;-82
2022/03/14 01:12:00;;;;;;;;;;;;;;;-144.19;86.41;77583.25;6009696;23;19918;-83
2022/03/14 01:14:26;;;;;;;;;;;;;;;-144.19;85.49;77571.44;6011032;23;19922;-86
2022/03/14 01:16:53;;;;;;;;;;;;;;;-144.19;89.05;77575.38;6011445;23;19918;-85
2022/03/14 01:19:20;;;;;;;;;;;;;;;-144.19;90.89;77587.19;6011343;23;20017;-84
2022/03/14 01:21:46;;;;;;;;;;;;;;;-144.19;90.78;77575.38;6010714;23;19918;-84
2022/03/14 01:24:13;;;;;;;;;;;;;;;-144.19;93.87;77583.25;6008763;23;19925;-83
2022/03/14 01:26:39;;;;;;;;;;;;;;;-144.19;91.99;77599.00;6008922;23;19918;-83
2022/03/14 01:29:07;;;;;;;;;;;;;;;-144.19;89.65;77587.19;6010196;23;20308;-84
2022/03/14 01:31:34;;;;;;;;;;;;;;;-144.19;88.57;77567.50;6010562;23;20073;-83
2022/03/14 01:34:00;;;;;;;;;;;;;;;-144.19;89.92;77587.19;6009624;23;19982;-82
2022/03/14 01:36:26;;;;;;;;;;;;;;;-144.19;88.96;77587.19;6017221;23;19929;-85
2022/03/14 01:38:53;;;;;;;;;;;;;;;-144.19;88.58;77583.25;6011459;23;19934;-86
2022/03/14 01:41:19;;;;;;;;;;;;;;;-144.19;94.20;77599.00;6009108;23;19918;-86
2022/03/14 01:43:48;;;;;;;;;;;;;;;-144.19;91.03;77591.13;6008752;23;19940;-83
2022/03/14 01:46:16;;;;;;;;;;;;;;;-144.19;97.45;77610.81;6011170;23;19922;-85
2022/03/14 01:48:43;;;;;;;;;;;;;;;-144.19;96.57;77614.75;6009571;23;19971;-84
2022/03/14 01:51:09;;;;;;;;;;;;;;;-144.19;95.45;77604.91;5986050;23;19941;-86
2022/03/14 01:53:36;;;;;;;;;;;;;;;-144.19;96.01;77620.66;6010135;23;19925;-82
2022/03/14 01:56:04;;;;;;;;;;;;;;;-144.19;98.04;77648.22;6009146;23;19918;-85
2022/03/14 01:58:31;;;;;;;;;;;;;;;-144.19;96.68;77626.56;6011231;23;19957;-83
2022/03/14 02:00:57;;;;;;;;;;;;;;;-144.19;99.03;77622.63;6008492;23;19924;-86
2022/03/14 02:03:23;;;;;;;;;;;;;;;-144.19;97.66;77614.75;6010613;23;19918;-83
2022/03/14 02:05:50;;;;;;;;;;;;;;;-144.19;100.00;77632.47;6010992;23;19990;-85
2022/03/14 02:08:17;;;;;;;;;;;;;;;-144.19;97.66;77618.69;6009297;23;19918;-85
2022/03/14 02:10:43;;;;;;;;;;;;;;;-144.19;97.84;77606.88;6006866;23;19922;-87
2022/03/14 02:13:10;;;;;;;;;;;;;;;-144.19;99.28;77606.88;6009528;23;19994;-86
2022/03/14 02:15:37;;;;;;;;;;;;;;;-144.19;98.18;77602.94;6009158;23;19925;-85
2022/03/14 02:18:03;;;;;;;;;;;;;;;-144.19;100.00;77618.69;6009207;23;20024;-83
2022/03/14 02:20:30;;;;;;;;;;;;;;;-144.19;100.00;77626.56;6010734;23;19960;-86
2022/03/14 02:22:56;;;;;;;;;;;;;;;-144.19;94.42;77630.50;6007422;23;19954;-85
2022/03/14 02:25:22;;;;;;;;;;;;;;;-144.19;93.77;77632.47;6009519;23;19925;-84
2022/03/14 02:27:49;;;;;;;;;;;;;;;-144.19;95.32;77618.69;6010432;23;19918;-83
2022/03/14 02:30:15;;;;;;;;;;;;;;;-144.19;96.15;77642.31;5985616;23;19937;-83
2022/03/14 02:32:42;;;;;;;;;;;;;;;-144.19;96.71;77626.56;6009795;23;19919;-83
2022/03/14 02:35:09;;;;;;;;;;;;;;;-144.19;99.91;77630.50;6009038;23;19918;-84
2022/03/14 02:37:36;;;;;;;;;;;;;;;-144.19;98.87;77634.44;6008466;23;19929;-83
2022/03/14 02:40:03;;;;;;;;;;;;;;;-144.19;97.31;77632.47;6009242;23;20452;-86
2022/03/14 02:42:29;;;;;;;;;;;;;;;-144.19;95.83;77626.56;6010453;23;19918;-85
2022/03/14 02:44:55;;;;;;;;;;;;;;;-144.19;100.00;77634.44;6008695;23;19922;-84
2022/03/14 02:47:22;;;;;;;;;;;;;;;-144.19;100.00;77652.16;6010712;23;19994;-86
2022/03/14 02:49:48;;;;;;;;;;;;;;;-144.19;100.00;77665.94;6010539;23;19918;-85
2022/03/14 02:52:14;;;;;;;;;;;;;;;-144.19;100.00;77681.69;6007981;23;19922;-83
2022/03/14 02:54:42;;;;;;;;;;;;;;;-144.19;100.00;77662.00;6008896;23;19918;-85
2022/03/14 02:57:09;;;;;;;;;;;;;;;-144.19;100.00;77660.03;6008786;23;19922;-84
2022/03/14 02:59:35;;;;;;;;;;;;;;;-144.19;100.00;77650.19;6009033;23;19922;-85
2022/03/14 03:02:02;;;;;;;;;;;;;;;-144.19;100.00;77665.94;6008619;23;19918;-84
2022/03/14 03:04:28;;;;;;;;;;;;;;;-144.19;100.00;77669.88;6010621;23;20004;-85
2022/03/14 03:06:55;;;;;;;;;;;;;;;-144.19;100.00;77665.94;6009934;23;19933;-84
2022/03/14 03:09:21;;;;;;;;;;;;;;;-144.19;100.00;77654.13;6004305;23;19925;-83
2022/03/14 03:11:48;;;;;;;;;;;;;;;-144.19;100.00;77662.00;6010937;23;19924;-83
2022/03/14 03:14:14;;;;;;;;;;;;;;;-144.19;100.00;77677.75;6007773;23;19925;-83
2022/03/14 03:16:40;;;;;;;;;;;;;;;-144.19;100.00;77662.00;6010587;23;19918;-82
2022/03/14 03:19:06;;;;;;;;;;;;;;;-144.19;100.00;77658.06;6010061;23;20336;-83
2022/03/14 03:21:34;;;;;;;;;;;;;;;-144.19;100.00;77660.03;6008621;23;19938;-83
2022/03/14 03:24:00;;;;;;;;;;;;;;;-144.19;100.00;77677.75;6009462;23;19999;-84
2022/03/14 03:26:27;;;;;;;;;;;;;;;-144.19;100.00;77654.13;6008165;23;19925;-86
2022/03/14 03:28:53;;;;;;;;;;;;;;;-144.19;100.00;77654.13;6007991;23;19918;-82
2022/03/14 03:31:20;;;;;;;;;;;;;;;-144.19;100.00;77654.13;6009414;23;19924;-84
2022/03/14 03:33:48;;;;;;;;;;;;;;;-144.19;100.00;77634.44;6008712;23;19918;-83
2022/03/14 03:36:14;;;;;;;;;;;;;;;-144.19;100.00;77646.25;6008512;23;19918;-84
2022/03/14 03:38:40;;;;;;;;;;;;;;;-144.19;100.00;77650.19;6008947;23;19940;-84
2022/03/14 03:41:06;;;;;;;;;;;;;;;-144.19;100.00;77646.25;6009418;23;19918;-85
2022/03/14 03:43:33;;;;;;;;;;;;;;;-144.19;100.00;77648.22;6008949;23;20336;-83
2022/03/14 03:45:59;;;;;;;;;;;;;;;-144.19;100.00;77665.94;6009572;23;19941;-84
2022/03/14 03:48:26;;;;;;;;;;;;;;;-144.19;100.00;77654.13;6008137;23;19922;-86
2022/03/14 03:50:52;;;;;;;;;;;;;;;-144.19;100.00;77658.06;6008287;23;19983;-83
2022/03/14 03:53:18;;;;;;;;;;;;;;;-144.19;100.00;77658.06;6007503;23;19918;-84
2022/03/14 03:55:45;;;;;;;;;;;;;;;-144.19;100.00;77665.94;6010152;23;20109;-86
2022/03/14 03:58:11;;;;;;;;;;;;;;;-144.19;100.00;77669.88;6008112;23;19918;-86
2022/03/14 04:00:38;;;;;;;;;;;;;;;-144.19;100.00;77675.78;6009859;23;19918;-84
2022/03/14 04:03:04;;;;;;;;;;;;;;;-144.19;100.00;77669.88;6008415;23;19933;-82
2022/03/14 04:05:31;;;;;;;;;;;;;;;-144.19;100.00;77669.88;6010168;23;19918;-84
2022/03/14 04:07:59;;;;;;;;;;;;;;;-144.19;100.00;77679.72;6008481;23;19997;-84
2022/03/14 04:10:28;;;;;;;;;;;;;;;-144.19;100.00;77685.63;6006756;23;19926;-84
2022/03/14 04:13:03;;;;;;;;;;;;;;;-144.19;100.00;77685.63;6007692;23;19993;-83
2022/03/14 04:15:30;;;;;;;;;;;;;;;-144.19;100.00;77669.88;6008482;23;19918;-83
2022/03/14 04:17:57;;;;;;;;;;;;;;;-144.19;100.00;77663.97;6008261;23;20357;-84
2022/03/14 04:20:24;;;;;;;;;;;;;;;-144.19;100.00;77665.94;6007256;23;19921;-85
2022/03/14 04:22:50;;;;;;;;;;;;;;;-144.19;100.00;77654.13;6008329;23;20002;-86
2022/03/14 04:25:17;;;;;;;;;;;;;;;-144.19;100.00;77656.09;6007226;23;19957;-84
2022/03/14 04:27:43;;;;;;;;;;;;;;;-144.19;100.00;77652.16;6007344;23;20332;-83
2022/03/14 04:30:10;;;;;;;;;;;;;;;-144.19;100.00;77662.00;6008456;23;19922;-83
2022/03/14 04:32:36;;;;;;;;;;;;;;;-144.19;100.00;77671.84;6007972;23;20005;-83
2022/03/14 04:35:03;;;;;;;;;;;;;;;-144.19;100.00;77665.94;6007783;23;19918;-84
2022/03/14 04:37:29;;;;;;;;;;;;;;;-144.19;100.00;77669.88;6009500;23;19924;-87
2022/03/14 04:39:55;;;;;;;;;;;;;;;-144.19;100.00;77671.84;6009234;23;19918;-84
2022/03/14 04:42:22;;;;;;;;;;;;;;;-144.19;100.00;77677.75;6006611;23;19920;-85
2022/03/14 04:44:52;;;;;;;;;;;;;;;-144.19;100.00;77687.59;6007615;23;20193;-82
2022/03/14 04:47:18;;;;;;;;;;;;;;;-144.19;100.00;77697.44;6010440;23;20361;-84
2022/03/14 04:49:45;;;;;;;;;;;;;;;-144.19;100.00;77697.44;6010284;23;19925;-85
2022/03/14 04:52:11;;;;;;;;;;;;;;;-144.19;100.00;77701.38;6009425;23;20351;-84
2022/03/14 04:54:38;;;;;;;;;;;;;;;-144.19;100.00;77705.31;6009047;23;19918;-83
2022/03/14 04:57:05;;;;;;;;;;;;;;;-144.19;100.00;77711.22;6010563;23;19929;-84
2022/03/14 04:59:31;;;;;;;;;;;;;;;-144.19;100.00;77717.13;6009274;23;19918;-83
2022/03/14 05:01:59;;;;;;;;;;;;;;;-144.19;100.00;77719.09;6008390;23;20005;-84
2022/03/14 05:04:26;;;;;;;;;;;;;;;-144.19;100.00;77721.06;6009318;23;19926;-84
2022/03/14 05:06:52;;;;;;;;;;;;;;;-144.19;100.00;77725.00;6011160;23;20001;-87
2022/03/14 05:09:18;;;;;;;;;;;;;;;-144.19;100.00;77736.81;6010083;23;19918;-86
2022/03/14 05:11:45;;;;;;;;;;;;;;;-144.19;100.00;77744.69;6009756;23;19927;-85
2022/03/14 05:14:12;;;;;;;;;;;;;;;-144.19;100.00;77744.69;6010563;23;19984;-88
2022/03/14 05:16:38;;;;;;;;;;;;;;;-144.19;100.00;77752.56;6009468;23;19918;-87
2022/03/14 05:19:04;;;;;;;;;;;;;;;-144.19;100.00;77754.53;6010414;23;20241;-85
2022/03/14 05:21:33;;;;;;;;;;;;;;;-144.19;100.00;77754.53;6011086;23;19918;-86
2022/03/14 05:23:59;;;;;;;;;;;;;;;-144.19;100.00;77744.69;6009687;23;19918;-88
2022/03/14 05:26:26;;;;;;;;;;;;;;;-144.19;100.00;77750.59;6009369;23;19918;-87
2022/03/14 05:28:52;;;;;;;;;;;;;;;-144.19;100.00;77758.47;6010428;23;20244;-87
2022/03/14 05:31:20;;;;;;;;;;;;;;;-144.19;100.00;77756.50;6009305;23;19926;-86
2022/03/14 05:33:47;;;;;;;;;;;;;;;-144.19;100.00;77752.56;6009298;23;19945;-87
2022/03/14 05:36:13;;;;;;;;;;;;;;;-144.19;100.00;77768.31;6010877;23;19918;-87
2022/03/14 05:38:40;;;;;;;;;;;;;;;-144.19;100.00;77791.94;6009957;23;20292;-86
2022/03/14 05:41:07;;;;;;;;;;;;;;;-144.19;100.00;77807.69;6010154;23;19928;-87
2022/03/14 05:43:39;;;;;;;;;;;;;;;-144.19;100.00;77823.44;6013512;23;19918;-87
2022/03/14 05:46:07;;;;;;;;;;;;;;;-144.19;100.00;77827.38;6011748;23;19918;-89
2022/03/14 05:48:35;;;;;;;;;;;;;;;-144.19;100.00;77858.91;6010356;23;19993;-87
2022/03/14 05:51:07;;;;;;;;;;;;;;;-144.19;100.00;77847.09;6009599;23;19918;-85
2022/03/14 05:53:34;;;;;;;;;;;;;;;-144.19;100.00;77854.97;6010101;23;19918;-85
2022/03/14 05:56:00;;;;;;;;;;;;;;;-144.19;100.00;77864.81;6010722;23;19989;-87
2022/03/14 05:58:27;;;;;;;;;;;;;;;-144.19;100.00;77874.66;6010796;23;19926;-87
2022/03/14 06:00:54;;;;;;;;;;;;;;;-144.19;100.00;77876.63;6010548;23;19925;-85
2022/03/14 06:03:20;;;;;;;;;;;;;;;-144.19;100.00;77872.69;6010895;23;19955;-86
2022/03/14 06:05:50;;;;;;;;;;;;;;;-144.19;100.00;77862.84;6012733;23;19922;-86
2022/03/14 06:08:17;;;;;;;;;;;;;;;-144.19;100.00;77874.66;6010577;23;19922;-87
2022/03/14 06:10:45;;;;;;;;;;;;;;;-144.19;100.00;77886.47;6010790;23;19918;-87
2022/03/14 06:13:13;;;;;;;;;;;;;;;-144.19;100.00;77894.34;6010527;23;20457;-86
2022/03/14 06:15:40;;;;;;;;;;;;;;;-144.19;100.00;77876.63;6010603;23;19997;-87
2022/03/14 06:18:06;;;;;;;;;;;;;;;-144.19;100.00;77874.66;6008210;23;19926;-85
2022/03/14 06:20:32;;;;;;;;;;;;;;;-144.19;100.00;77870.72;6008985;23;19918;-87
2022/03/14 06:22:59;;;;;;;;;;;;;;;-144.19;100.00;77868.75;6009005;23;19918;-89
2022/03/14 06:25:25;;;;;;;;;;;;;;;-144.19;100.00;77866.78;6010926;23;19918;-90
2022/03/14 06:27:52;;;;;;;;;;;;;;;-144.19;100.00;77876.63;6009852;23;19990;-88
2022/03/14 06:30:19;;;;;;;;;;;;;;;-144.19;100.00;77886.47;6009097;23;19997;-86
2022/03/14 06:32:48;;;;;;;;;;;;;;;-144.19;100.00;77884.50;6008671;23;19925;-88
2022/03/14 06:35:16;;;;;;;;;;;;;;;-144.19;100.00;77882.53;6010145;23;19921;-86
2022/03/14 06:37:43;;;;;;;;;;;;;;;-144.19;100.00;77886.47;6008927;23;19918;-86
2022/03/14 06:40:11;;;;;;;;;;;;;;;-144.19;100.00;77898.28;6008871;23;19922;-87
2022/03/14 06:42:41;;;;;;;;;;;;;;;-144.19;100.00;77902.22;6008897;23;20038;-88
2022/03/14 06:45:09;;;;;;;;;;;;;;;-144.19;100.00;77898.28;6009360;23;19927;-87
2022/03/14 06:47:38;;;;;;;;;;;;;;;-144.19;100.00;77910.09;6008577;23;19980;-88
2022/03/14 06:50:05;;;;;;;;;;;;;;;-144.19;100.00;77902.22;6008428;23;20324;-86
2022/03/14 06:52:32;;;;;;;;;;;;;;;-144.19;100.00;77914.03;6007597;23;19953;-88
2022/03/14 06:54:59;;;;;;;;;;;;;;;-144.19;100.00;77912.06;6010059;23;19925;-87
2022/03/14 06:57:26;;;;;;;;;;;;;;;-144.19;100.00;77929.78;6008865;23;19918;-87
2022/03/14 06:59:52;;;;;;;;;;;;;;;-144.19;100.00;77937.66;6009249;23;19918;-85
2022/03/14 07:02:19;;;;;;;;;;;;;;;-144.19;100.00;77943.56;6008331;23;19924;-86
2022/03/14 07:04:45;;;;;;;;;;;;;;;-144.19;100.00;77945.53;6009090;23;19918;-85
2022/03/14 07:07:11;;;;;;;;;;;;;;;-144.19;100.00;77941.59;6010060;23;19918;-85
2022/03/14 07:09:38;;;;;;;;;;;;;;;-144.19;100.00;77933.72;6008304;23;19925;-86
2022/03/14 07:12:04;;;;;;;;;;;;;;;-144.19;100.00;77933.72;6007381;23;19924;-88
2022/03/14 07:14:31;;;;;;;;;;;;;;;-144.19;100.00;77937.66;6008281;23;19924;-86
2022/03/14 07:16:57;;;;;;;;;;;;;;;-144.19;100.00;77943.56;6008974;23;19974;-86
2022/03/14 07:19:24;;;;;;;;;;;;;;;-144.19;100.00;77941.59;6008526;23;19922;-85
2022/03/14 07:21:50;;;;;;;;;;;;;;;-144.19;100.00;77939.63;6009081;23;20267;-85
2022/03/14 07:24:16;;;;;;;;;;;;;;;-144.19;100.00;77941.59;6007989;23;20317;-86
2022/03/14 07:26:43;;;;;;;;;;;;;;;-144.19;100.00;77945.53;6008171;23;19957;-86
2022/03/14 07:29:09;;;;;;;;;;;;;;;-144.19;100.00;77933.72;6009984;23;20001;-87
2022/03/14 07:31:37;;;;;;;;;;;;;;;-144.19;100.00;77939.63;6007910;23;19918;-87
2022/03/14 07:34:04;;;;;;;;;;;;;;;-144.19;100.00;77941.59;6008933;23;19934;-86
2022/03/14 07:36:30;;;;;;;;;;;;;;;-144.19;100.00;77925.84;6008018;23;19918;-87
2022/03/14 07:38:57;;;;;;;;;;;;;;;-144.19;100.00;77937.66;6008794;23;19918;-87
2022/03/14 07:41:23;;;;;;;;;;;;;;;-144.19;100.00;77937.66;6007936;23;20283;-91
2022/03/14 07:43:49;;;;;;;;;;;;;;;-144.19;100.00;77921.91;6008131;23;20259;-87
2022/03/14 07:46:16;;;;;;;;;;;;;;;-144.19;100.00;77923.88;6008339;23;19918;-87
2022/03/14 07:48:42;;;;;;;;;;;;;;;-144.19;100.00;77919.94;6008549;23;19918;-84
2022/03/14 07:51:09;;;;;;;;;;;;;;;-144.19;100.00;77917.97;6009198;23;20316;-86
2022/03/14 07:53:35;;;;;;;;;;;;;;;-144.19;100.00;77917.97;6007943;23;19924;-87
2022/03/14 07:56:01;;;;;;;;;;;;;;;-144.19;100.00;77919.94;6008411;23;19940;-86
2022/03/14 07:58:28;;;;;;;;;;;;;;;-144.19;100.00;77910.09;6009376;23;20013;-86
2022/03/14 08:00:56;;;;;;;;;;;;;;;-144.19;100.00;77906.16;6010124;23;19992;-86
2022/03/14 08:03:24;;;;;;;;;;;;;;;-144.19;100.00;77902.22;6007861;23;19972;-85
2022/03/14 08:05:55;;;;;;;;;;;;;;;-144.19;100.00;77898.28;6008768;23;19918;-87
2022/03/14 08:08:22;;;;;;;;;;;;;;;-144.19;100.00;77894.34;6008780;23;19924;-86
2022/03/14 08:10:49;;;;;;;;;;;;;;;-144.19;100.00;77894.34;6009420;23;20253;-86
2022/03/14 08:13:15;;;;;;;;;;;;;;;-144.19;100.00;77890.41;6007902;23;19918;-87
2022/03/14 08:15:41;;;;;;;;;;;;;;;-144.19;100.00;77880.56;6009473;23;19918;-85
2022/03/14 08:18:09;;;;;;;;;;;;;;;-144.19;100.00;77870.72;6008321;23;19926;-85
2022/03/14 08:20:35;;;;;;;;;;;;;;;-144.19;100.00;77858.91;6008758;23;19924;-88
2022/03/14 08:23:02;;;;;;;;;;;;;;;-144.19;100.00;77858.91;6010911;23;19918;-85
2022/03/14 08:25:32;;;;;;;;;;;;;;;-144.19;100.00;77858.91;6010204;23;20343;-86
2022/03/14 08:27:59;;;;;;;;;;;;;;;-144.19;100.00;77853.00;6011147;23;20378;-86
2022/03/14 08:30:25;;;;;;;;;;;;;;;-144.19;100.00;77847.09;6009574;23;19918;-86
2022/03/14 08:32:54;;;;;;;;;;;;;;;-144.19;100.00;77851.03;6008859;23;19947;-85
2022/03/14 08:35:20;;;;;;;;;;;;;;;-144.19;100.00;77847.09;6010112;23;20204;-87
2022/03/14 08:37:48;;;;;;;;;;;;;;;-144.19;100.00;77843.13;6011744;23;19922;-87
2022/03/14 08:40:16;;;;;;;;;;;;;;;-144.19;100.00;77847.09;6010602;23;19918;-86
2022/03/14 08:42:44;;;;;;;;;;;;;;;-144.19;100.00;77845.13;6009071;23;19918;-85
2022/03/14 08:45:11;;;;;;;;;;;;;;;-144.19;100.00;77843.13;6011625;23;19941;-84
2022/03/14 08:47:37;;;;;;;;;;;;;;;-144.19;100.00;77845.13;6011046;23;19918;-84
2022/03/14 08:50:05;;;;;;;;;;;;;;;-144.19;100.00;77841.19;6008814;23;19918;-85
2022/03/14 08:52:31;;;;;;;;;;;;;;;-144.19;100.00;77845.13;6009345;23;20294;-86
2022/03/14 08:54:58;;;;;;;;;;;;;;;-144.19;100.00;77858.91;6009666;23;19929;-86
2022/03/14 08:57:24;;;;;;;;;;;;;;;-144.19;100.00;77866.78;6009869;23;19925;-87
2022/03/14 08:59:50;;;;;;;;;;;;;;;-144.19;100.00;77864.81;6011176;23;19975;-86
2022/03/14 09:02:17;;;;;;;;;;;;;;;-144.19;100.00;77858.91;6008206;23;19918;-89
2022/03/14 09:04:43;;;;;;;;;;;;;;;-144.19;100.00;77856.94;6010860;23;19918;-86
2022/03/14 09:07:10;;;;;;;;;;;;;;;-144.19;100.00;77862.84;6009732;23;19918;-86
2022/03/14 09:09:37;;;;;;;;;;;;;;;-144.19;100.00;77858.91;6009254;23;19922;-85
2022/03/14 09:12:03;;;;;;;;;;;;;;;-144.19;100.00;77858.91;6008018;23;20340;-87
2022/03/14 09:14:31;;;;;;;;;;;;;;;-144.19;100.00;77870.72;6010313;23;19925;-87
2022/03/14 09:16:58;;;;;;;;;;;;;;;-144.19;100.00;77868.75;6009138;23;19918;-87
2022/03/14 09:19:27;;;;;;;;;;;;;;;-144.19;100.00;77858.91;6008819;23;20348;-88
2022/03/14 09:21:56;;;;;;;;;;;;;;;-144.19;100.00;77837.22;6006472;23;20004;-91
2022/03/14 09:24:23;;;;;;;;;;;;;;;-144.19;100.00;77833.28;6009561;23;19953;-88
2022/03/14 09:26:50;;;;;;;;;;;;;;;-144.19;100.00;77811.63;6011872;23;19918;-86
2022/03/14 09:29:17;;;;;;;;;;;;;;;-144.19;100.00;77789.97;6011650;23;20323;-86
2022/03/14 09:31:43;;;;;;;;;;;;;;;-144.19;100.00;77823.44;6011627;23;20004;-87
2022/03/14 09:34:11;;;;;;;;;;;;;;;-144.19;100.00;77825.41;6014728;23;19925;-88
2022/03/14 09:36:37;;;;;;;;;;;;;;;-144.19;100.00;77819.50;6010038;23;20292;-87
2022/03/14 09:39:04;;;;;;;;;;;;;;;-144.19;100.00;77827.38;6010143;23;19960;-89
2022/03/14 09:41:33;;;;;;;;;;;;;;;-144.19;100.00;77815.56;6009525;23;19938;-90
2022/03/14 09:44:01;;;;;;;;;;;;;;;-144.19;100.00;77837.22;6009283;23;20498;-85
2022/03/14 09:46:28;;;;;;;;;;;;;;;-144.19;100.00;77843.13;6009467;23;20340;-86
2022/03/14 09:48:57;;;;;;;;;;;;;;;-144.19;100.00;77833.28;6011213;23;19933;-89
2022/03/14 09:51:24;;;;;;;;;;;;;;;-144.19;100.00;77823.44;6009255;23;19918;-89
2022/03/14 09:53:50;;;;;;;;;;;;;;;-144.19;100.00;77858.91;6010052;23;19964;-85
2022/03/14 09:56:16;;;;;;;;;;;;;;;-144.19;100.00;77853.00;6010592;23;19925;-88
2022/03/14 09:58:50;;;;;;;;;;;;;;;-144.19;100.00;77886.47;6009756;23;19918;-87
2022/03/14 10:04:45;;;;;;;;;;;;;;;-144.19;100.00;77878.59;6006635;23;19917;-89
2022/03/14 10:07:11;;;;;;;;;;;;;;;-144.19;100.00;77892.38;6011146;23;19993;-89
2022/03/14 10:09:38;;;;;;;;;;;;;;;-144.19;100.00;77890.41;6011274;23;19925;-85
2022/03/14 10:12:04;;;;;;;;;;;;;;;-144.19;100.00;77882.53;6009696;23;19924;-88
2022/03/14 10:14:31;;;;;;;;;;;;;;;-144.19;100.00;77882.53;6010206;23;20316;-90
2022/03/14 10:17:00;;;;;;;;;;;;;;;-144.19;100.00;77898.28;6004611;23;19925;-89
2022/03/14 10:19:31;;;;;;;;;;;;;;;-144.19;100.00;77894.34;6009291;23;20262;-88
2022/03/14 10:22:10;;;;;;;;;;;;;;;-144.19;100.00;77896.31;6009665;23;19918;-88
2022/03/14 10:24:38;;;;;;;;;;;;;;;-144.19;100.00;77876.63;6012759;23;20496;-88
2022/03/14 10:27:05;;;;;;;;;;;;;;;-144.19;100.00;77864.81;6010669;23;19964;-88
2022/03/14 10:29:32;;;;;;;;;;;;;;;-144.19;100.00;77831.31;6011392;23;19918;-88
2022/03/14 10:32:00;;;;;;;;;;;;;;;-144.19;100.00;77829.34;6008980;23;20021;-88
2022/03/14 10:34:30;;;;;;;;;;;;;;;-144.19;100.00;77823.44;6009376;23;19926;-90
2022/03/14 10:36:57;;;;;;;;;;;;;;;-144.19;100.00;77823.44;6009825;23;19949;-89
2022/03/14 10:39:27;;;;;;;;;;;;;;;-144.19;100.00;77819.50;6010615;23;19925;-88
2022/03/14 10:41:59;;;;;;;;;;;;;;;-144.19;100.00;77799.81;6009341;23;19918;-88
2022/03/14 10:44:44;;;;;;;;;;;;;;;-144.19;100.00;77831.31;6009069;23;19982;-87
2022/03/14 10:47:13;;;;;;;;;;;;;;;-144.19;100.00;77815.56;6007194;23;19918;-88
2022/03/14 10:49:40;;;;;;;;;;;;;;;-144.19;100.00;77811.63;6011144;23;20388;-87
2022/03/14 10:52:13;;;;;;;;;;;;;;;-144.19;100.00;77803.75;6009649;23;19992;-87
2022/03/14 10:54:41;;;;;;;;;;;;;;;-144.19;100.00;77795.88;6009083;23;19982;-88
2022/03/14 10:57:07;;;;;;;;;;;;;;;-144.19;100.00;77789.97;6009742;23;19924;-89
2022/03/14 10:59:45;;;;;;;;;;;;;;;-144.19;100.00;77762.41;6008856;23;20362;-88
2022/03/14 11:02:12;;;;;;;;;;;;;;;-144.19;100.00;77780.13;6007384;23;19921;-88
2022/03/14 11:04:40;;;;;;;;;;;;;;;-144.19;100.00;77776.19;6010655;23;19918;-90
2022/03/14 11:07:06;;;;;;;;;;;;;;;-144.19;100.00;77764.38;6007842;23;19938;-88
2022/03/14 11:09:38;;;;;;;;;;;;;;;-144.19;100.00;77778.16;6009538;23;19918;-90
2022/03/14 11:12:07;;;;;;;;;;;;;;;-144.19;100.00;77754.53;6009349;23;19945;-87
2022/03/14 11:14:33;;;;;;;;;;;;;;;-144.19;100.00;77748.63;6009758;23;20001;-89
2022/03/14 11:17:29;;;;;;;;;;;;;;;-144.19;100.00;77770.28;6010042;23;19922;-88
2022/03/14 11:20:05;;;;;;;;;;;;;;;-144.19;100.00;77768.31;6002810;23;19986;-87
2022/03/14 11:22:31;;;;;;;;;;;;;;;-144.19;100.00;77788.00;6008633;23;20262;-90
2022/03/14 11:24:59;;;;;;;;;;;;;;;-144.19;100.00;77774.22;6009138;23;20266;-89
2022/03/14 11:30:13;;;;;;;;;;;;;;;-144.19;100.00;77799.81;6122257;23;20437;-92
2022/03/14 11:32:41;;;;;;;;;;;;;;;-144.19;100.00;77807.69;6096946;23;19943;-91
2022/03/14 11:35:08;;;;;;;;;;;;;;;-144.19;100.00;77811.63;6121712;23;19931;-90
2022/03/14 11:38:04;;;;;;;;;;;;;;;-144.19;100.00;77815.56;6133033;23;19967;-91
2022/03/14 11:40:43;;;;;;;;;;;;;;;-144.19;100.00;77819.50;6130917;23;20349;-92
2022/03/14 11:43:11;;;;;;;;;;;;;;;-144.19;100.00;77823.44;6151222;23;19916;-91
2022/03/14 11:45:38;;;;;;;;;;;;;;;-144.19;100.00;77807.69;6126977;23;20274;-91
2022/03/14 11:48:05;;;;;;;;;;;;;;;-144.19;100.00;77791.94;6151613;23;19917;-89
2022/03/14 11:50:40;;;;;;;;;;;;;;;-144.19;100.00;77811.63;6154148;23;19916;-88
2022/03/14 11:53:07;;;;;;;;;;;;;;;-144.19;100.00;77776.19;6152154;23;19923;-90
2022/03/14 11:55:33;;;;;;;;;;;;;;;-144.19;100.00;77760.44;6153261;23;20415;-86
2022/03/14 11:58:00;;;;;;;;;;;;;;;-144.19;100.00;77770.28;6154060;23;19938;-90
2022/03/14 12:00:32;;;;;;;;;;;;;;;-144.19;100.00;77756.50;6157255;23;19923;-88
2022/03/14 12:03:05;;;;;;;;;;;;;;;-144.19;100.00;77762.41;6130989;23;19928;-88
2022/03/14 12:05:31;;;;;;;;;;;;;;;-144.19;100.00;77748.63;6150914;23;19942;-92
2022/03/14 12:08:01;;;;;;;;;;;;;;;-144.19;100.00;77732.88;6155334;23;19927;-90
2022/03/14 12:10:29;;;;;;;;;;;;;;;-144.19;100.00;77725.00;6130732;23;19952;-90
2022/03/14 12:12:58;;;;;;;;;;;;;;;-144.19;100.00;77744.69;6153060;23;19947;-89
2022/03/14 12:15:45;;;;;;;;;;;;;;;-144.19;100.00;77744.69;6156202;23;20376;-88
2022/03/14 12:18:22;;;;;;;;;;;;;;;-144.19;100.00;77723.03;6142832;23;20286;-88
2022/03/14 12:21:26;;;;;;;;;;;;;;;-144.19;100.00;77703.34;6133481;23;19999;-92
2022/03/14 12:23:53;;;;;;;;;;;;;;;-144.19;100.00;77730.91;6153310;23;19916;-94
2022/03/14 12:26:24;;;;;;;;;;;;;;;-144.19;100.00;77728.94;6155554;23;20349;-90